createdAt,value
2019-02-05T00:02:21.468Z,15.70
2019-02-05T00:04:50.321Z,13.83
2019-02-05T00:07:19.066Z,15.50
2019-02-05T00:09:48.040Z,16.73
2019-02-05T00:12:16.932Z,14.57
2019-02-05T00:14:45.595Z,15.70
2019-02-05T00:17:15.030Z,14.90
2019-02-05T00:19:43.644Z,16.27
2019-02-05T00:22:12.265Z,18.30
2019-02-05T00:24:41.273Z,19.97
2019-02-05T00:27:10.040Z,14.73
2019-02-05T00:29:38.655Z,18.47
2019-02-05T00:32:07.348Z,19.27
2019-02-05T00:34:35.966Z,14.63
2019-02-05T00:37:05.019Z,19.97
2019-02-05T00:39:33.624Z,15.87
2019-02-05T00:42:02.245Z,15.63
2019-02-05T00:44:30.851Z,16.43
2019-02-05T00:46:59.478Z,15.10
2019-02-05T00:49:28.076Z,14.57
2019-02-05T00:51:56.695Z,14.93
2019-02-05T00:54:25.298Z,16.50
2019-02-05T00:56:54.194Z,15.17
2019-02-05T00:59:22.787Z,12.77
2019-02-05T01:01:51.498Z,12.40
2019-02-05T01:04:20.182Z,13.33
2019-02-05T01:06:48.869Z,13.30
2019-02-05T01:09:17.569Z,13.63
2019-02-05T01:11:46.355Z,14.50
2019-02-05T01:14:14.991Z,14.53
2019-02-05T01:16:43.747Z,11.23
2019-02-05T01:19:12.403Z,13.40
2019-02-05T01:21:41.040Z,14.37
2019-02-05T01:24:09.734Z,18.50
2019-02-05T01:26:38.814Z,13.63
2019-02-05T01:29:07.756Z,15.73
2019-02-05T01:31:36.357Z,14.57
2019-02-05T01:34:05.343Z,13.53
2019-02-05T01:36:33.931Z,11.93
2019-02-05T01:39:03.319Z,13.33
2019-02-05T01:41:32.442Z,16.60
2019-02-05T01:44:01.180Z,14.90
2019-02-05T01:46:29.793Z,13.67
2019-02-05T01:48:58.411Z,17.93
2019-02-05T01:51:27.071Z,17.20
2019-02-05T01:53:55.740Z,14.00
2019-02-05T01:56:24.346Z,16.70
2019-02-05T01:58:53.299Z,14.93
2019-02-05T02:01:21.931Z,18.50
2019-02-05T02:03:50.615Z,21.80
2019-02-05T02:06:19.299Z,15.67
2019-02-05T02:08:48.070Z,16.03
2019-02-05T02:11:16.833Z,13.80
2019-02-05T02:13:45.720Z,16.90
2019-02-05T02:16:14.413Z,18.00
2019-02-05T02:18:43.290Z,15.53
2019-02-05T02:21:14.947Z,16.50
2019-02-05T02:23:43.594Z,17.10
2019-02-05T02:26:12.202Z,20.73
2019-02-05T02:28:41.124Z,17.47
2019-02-05T02:31:09.741Z,21.53
2019-02-05T02:33:38.363Z,16.00
2019-02-05T02:36:07.053Z,17.70
2019-02-05T02:38:35.697Z,16.47
2019-02-05T02:41:04.427Z,16.30
2019-02-05T02:43:33.282Z,21.27
2019-02-05T02:46:01.903Z,16.83
2019-02-05T02:48:30.600Z,19.50
2019-02-05T02:50:59.212Z,21.40
2019-02-05T02:53:27.854Z,16.30
2019-02-05T02:55:56.460Z,18.27
2019-02-05T02:58:25.145Z,15.67
2019-02-05T03:00:53.983Z,18.03
2019-02-05T03:03:22.611Z,18.80
2019-02-05T03:05:50.917Z,15.93
2019-02-05T03:08:19.124Z,20.20
2019-02-05T03:10:47.353Z,21.63
2019-02-05T03:13:15.541Z,19.33
2019-02-05T03:15:44.192Z,21.93
2019-02-05T03:18:13.254Z,16.43
2019-02-05T03:20:41.890Z,20.80
2019-02-05T03:23:10.505Z,22.47
2019-02-05T03:25:39.120Z,17.07
2019-02-05T03:28:07.745Z,21.43
2019-02-05T03:30:36.674Z,24.13
2019-02-05T03:33:05.304Z,18.83
2019-02-05T03:35:34.006Z,23.95
2019-02-05T03:38:02.874Z,20.60
2019-02-05T03:41:03.620Z,19.55
2019-02-05T03:43:32.731Z,18.40
2019-02-05T03:46:03.619Z,18.55
2019-02-05T03:48:33.365Z,21.90
2019-02-05T03:51:37.586Z,20.85
2019-02-05T03:54:16.796Z,18.30
2019-02-05T03:56:57.811Z,19.03
2019-02-05T03:59:41.589Z,19.07
2019-02-05T04:02:41.648Z,22.90
2019-02-05T04:05:45.419Z,20.47
2019-02-05T04:08:42.709Z,23.10
2019-02-05T04:11:47.161Z,20.07
2019-02-05T04:15:05.277Z,20.70
2019-02-05T04:18:00.126Z,22.80
2019-02-05T04:20:54.541Z,22.23
2019-02-05T04:23:47.250Z,26.93
2019-02-05T04:26:35.559Z,21.00
2019-02-05T04:29:43.642Z,30.37
2019-02-05T04:32:31.299Z,22.53
2019-02-05T04:35:23.880Z,20.70
2019-02-05T04:38:27.105Z,23.20
2019-02-05T04:41:06.596Z,22.10
2019-02-05T04:44:16.531Z,28.53
2019-02-05T04:46:57.063Z,25.10
2019-02-05T04:50:00.624Z,23.73
2019-02-05T04:52:52.640Z,25.23
2019-02-05T04:55:37.622Z,24.80
2019-02-05T04:58:56.266Z,26.40
2019-02-05T05:01:52.983Z,23.70
2019-02-05T05:04:37.505Z,27.90
2019-02-05T05:07:27.437Z,31.33
2019-02-05T05:10:06.318Z,26.20
2019-02-05T05:12:34.939Z,27.37
2019-02-05T05:15:04.354Z,28.10
2019-02-05T05:17:33.065Z,29.73
2019-02-05T05:20:01.680Z,27.10
2019-02-05T05:22:30.532Z,32.60
2019-02-05T05:24:59.406Z,29.40
2019-02-05T05:27:28.420Z,28.40
2019-02-05T05:29:57.298Z,36.73
2019-02-05T05:32:26.043Z,33.80
2019-02-05T05:34:54.665Z,29.63
2019-02-05T05:37:23.314Z,38.43
2019-02-05T05:39:52.022Z,29.40
2019-02-05T05:42:20.645Z,36.90
2019-02-05T05:44:49.367Z,32.67
2019-02-05T05:47:17.997Z,35.40
2019-02-05T05:49:46.627Z,35.10
2019-02-05T05:52:15.239Z,36.83
2019-02-05T05:54:43.883Z,39.17
2019-02-05T05:57:12.502Z,35.50
2019-02-05T05:59:41.145Z,37.83
2019-02-05T06:02:09.759Z,37.73
2019-02-05T06:04:38.531Z,46.80
2019-02-05T06:07:07.177Z,38.53
2019-02-05T06:09:35.832Z,41.87
2019-02-05T06:12:04.664Z,40.30
2019-02-05T06:14:33.324Z,42.10
2019-02-05T06:17:02.009Z,41.20
2019-02-05T06:19:30.643Z,41.63
2019-02-05T06:21:59.288Z,38.87
2019-02-05T06:24:27.921Z,46.80
2019-02-05T06:26:56.511Z,44.10
2019-02-05T06:29:25.147Z,44.07
2019-02-05T06:31:53.913Z,44.83
2019-02-05T06:34:22.816Z,42.83
2019-02-05T06:36:51.420Z,45.77
2019-02-05T06:39:20.067Z,43.07
2019-02-05T06:41:48.868Z,45.50
2019-02-05T06:44:17.567Z,51.10
2019-02-05T06:46:46.268Z,45.50
2019-02-05T06:49:14.883Z,45.60
2019-02-05T06:51:43.872Z,46.53
2019-02-05T06:54:12.511Z,47.80
2019-02-05T06:56:42.496Z,45.17
2019-02-05T06:59:11.465Z,46.47
2019-02-05T07:01:40.109Z,46.60
2019-02-05T07:04:08.993Z,47.67
2019-02-05T07:06:37.635Z,46.40
2019-02-05T07:09:09.515Z,49.67
2019-02-05T07:11:38.148Z,48.33
2019-02-05T07:14:07.488Z,46.53
2019-02-05T07:16:36.106Z,50.77
2019-02-05T07:19:04.989Z,48.90
2019-02-05T07:21:33.692Z,51.70
2019-02-05T07:24:02.794Z,46.50
2019-02-05T07:26:31.415Z,54.10
2019-02-05T07:29:02.041Z,46.80
2019-02-05T07:31:30.605Z,50.27
2019-02-05T07:33:59.239Z,53.47
2019-02-05T07:36:27.962Z,48.80
2019-02-05T07:38:56.639Z,52.53
2019-02-05T07:41:25.451Z,49.27
2019-02-05T07:43:54.077Z,54.40
2019-02-05T07:46:22.797Z,54.17
2019-02-05T07:48:51.410Z,53.07
2019-02-05T07:51:20.049Z,54.50
2019-02-05T07:53:48.684Z,53.83
2019-02-05T07:56:17.543Z,47.07
2019-02-05T07:58:46.291Z,48.77
2019-02-05T08:01:17.594Z,47.90
2019-02-05T08:03:45.539Z,50.80
2019-02-05T08:06:15.838Z,47.43
2019-02-05T08:08:44.572Z,47.40
2019-02-05T08:11:13.644Z,52.67
2019-02-05T08:13:42.645Z,52.93
2019-02-05T08:16:11.560Z,58.50
2019-02-05T08:18:40.209Z,52.40
2019-02-05T08:21:08.835Z,56.03
2019-02-05T08:23:37.439Z,45.40
2019-02-05T08:26:06.147Z,45.63
2019-02-05T08:28:41.031Z,49.40
2019-02-05T08:31:05.267Z,44.60
2019-02-05T08:33:34.123Z,47.33
2019-02-05T08:36:02.751Z,51.83
2019-02-05T08:38:31.373Z,49.53
2019-02-05T08:41:00.076Z,50.53
2019-02-05T08:43:28.723Z,50.83
2019-02-05T08:45:57.436Z,53.70
2019-02-05T08:48:26.100Z,51.07
2019-02-05T08:50:54.880Z,51.37
2019-02-05T08:53:23.543Z,52.53
2019-02-05T08:55:52.355Z,47.80
2019-02-05T08:58:30.731Z,56.50
2019-02-05T09:00:51.375Z,55.30
2019-02-05T09:03:20.012Z,58.10
2019-02-05T09:05:48.703Z,55.53
2019-02-05T09:08:17.332Z,56.27
2019-02-05T09:10:46.023Z,46.43
2019-02-05T09:13:14.927Z,48.00
2019-02-05T09:15:43.544Z,51.17
2019-02-05T09:18:12.432Z,57.30
2019-02-05T09:20:41.167Z,47.90
2019-02-05T09:23:10.116Z,46.37
2019-02-05T09:25:38.974Z,50.60
2019-02-05T09:28:07.804Z,50.67
2019-02-05T09:30:36.916Z,53.30
2019-02-05T09:33:08.458Z,50.67
2019-02-05T09:35:37.070Z,49.77
2019-02-05T09:38:05.731Z,53.60
2019-02-05T09:40:34.766Z,45.37
2019-02-05T09:43:03.685Z,48.50
2019-02-05T09:45:32.624Z,48.13
2019-02-05T09:48:01.638Z,48.13
2019-02-05T09:50:31.102Z,44.60
2019-02-05T09:53:00.918Z,38.23
2019-02-05T09:55:29.556Z,40.00
2019-02-05T09:57:58.260Z,44.13
2019-02-05T10:00:32.371Z,46.93
2019-02-05T10:03:01.356Z,36.73
2019-02-05T10:05:30.777Z,42.60
2019-02-05T10:07:59.496Z,36.90
2019-02-05T10:10:28.270Z,40.17
2019-02-05T10:12:57.068Z,36.90
2019-02-05T10:15:28.018Z,41.00
2019-02-05T10:17:56.787Z,40.00
2019-02-05T10:20:25.940Z,36.90
2019-02-05T10:22:56.700Z,38.63
2019-02-05T10:25:25.578Z,38.80
2019-02-05T10:27:54.212Z,39.07
2019-02-05T10:30:25.276Z,40.43
2019-02-05T10:32:54.129Z,40.10
2019-02-05T10:35:24.461Z,36.77
2019-02-05T10:37:56.159Z,39.63
2019-02-05T10:40:25.651Z,38.87
2019-02-05T10:42:54.564Z,44.80
2019-02-05T10:45:24.588Z,44.13
2019-02-05T10:47:53.354Z,42.13
2019-02-05T10:50:22.687Z,41.90
2019-02-05T10:52:51.697Z,43.67
2019-02-05T10:55:20.702Z,39.93
2019-02-05T10:57:49.740Z,37.90
2019-02-05T11:00:18.963Z,34.70
2019-02-05T11:02:47.941Z,37.27
2019-02-05T11:05:19.164Z,39.77
2019-02-05T11:07:48.268Z,36.90
2019-02-05T11:10:17.363Z,37.33
2019-02-05T11:12:46.100Z,40.57
2019-02-05T11:15:17.195Z,40.80
2019-02-05T11:17:46.598Z,41.90
2019-02-05T11:20:17.510Z,44.20
2019-02-05T11:22:47.575Z,43.93
2019-02-05T11:25:16.656Z,42.60
2019-02-05T11:27:46.118Z,45.07
2019-02-05T11:30:23.516Z,44.40
2019-02-05T11:32:52.991Z,44.70
2019-02-05T11:35:21.981Z,44.97
2019-02-05T11:37:51.110Z,54.07
2019-02-05T11:40:29.137Z,51.13
2019-02-05T11:42:57.839Z,50.27
2019-02-05T11:45:26.680Z,44.33
2019-02-05T11:47:55.651Z,52.53
2019-02-05T11:50:24.520Z,50.80
2019-02-05T11:52:53.569Z,47.47
2019-02-05T11:55:23.877Z,50.13
2019-02-05T11:57:52.529Z,55.40
2019-02-05T12:00:38.664Z,53.33
2019-02-05T12:03:08.624Z,47.90
2019-02-05T12:05:37.621Z,46.13
2019-02-05T12:08:06.683Z,55.20
2019-02-05T12:10:35.378Z,50.10
2019-02-05T12:13:04.271Z,48.30
2019-02-05T12:15:33.052Z,51.50
2019-02-05T12:18:01.787Z,48.83
2019-02-05T12:20:30.577Z,63.63
2019-02-05T12:22:59.671Z,60.57
2019-02-05T12:25:28.557Z,55.23
2019-02-05T12:27:57.265Z,48.03
2019-02-05T12:30:28.444Z,49.13
2019-02-05T12:32:57.317Z,55.77
2019-02-05T12:35:25.935Z,57.20
2019-02-05T12:37:54.813Z,52.83
2019-02-05T12:40:23.759Z,56.30
2019-02-05T12:42:52.671Z,51.63
2019-02-05T12:45:24.236Z,50.90
2019-02-05T12:47:53.083Z,59.20
2019-02-05T12:50:24.229Z,55.03
2019-02-05T12:52:53.485Z,51.33
2019-02-05T12:55:22.586Z,52.63
2019-02-05T12:57:51.375Z,56.20
2019-02-05T13:00:22.916Z,57.03
2019-02-05T13:02:54.486Z,55.17
2019-02-05T13:05:22.314Z,51.47
2019-02-05T13:07:50.902Z,57.07
2019-02-05T13:10:22.082Z,54.90
2019-02-05T13:12:50.737Z,50.17
2019-02-05T13:15:19.523Z,52.43
2019-02-05T13:17:48.332Z,60.63
2019-02-05T13:20:20.037Z,55.67
2019-02-05T13:22:48.955Z,60.30
2019-02-05T13:25:20.087Z,58.37
2019-02-05T13:27:48.796Z,57.17
2019-02-05T13:30:20.020Z,52.47
2019-02-05T13:32:48.756Z,57.10
2019-02-05T13:35:17.540Z,54.40
2019-02-05T13:37:46.198Z,59.73
2019-02-05T13:40:17.852Z,52.83
2019-02-05T13:42:46.863Z,61.03
2019-02-05T13:45:17.952Z,55.57
2019-02-05T13:47:46.600Z,54.00
2019-02-05T13:50:32.501Z,62.27
2019-02-05T13:52:53.827Z,61.70
2019-02-05T13:55:25.305Z,64.00
2019-02-05T13:57:54.061Z,49.93
2019-02-05T14:00:27.894Z,57.67
2019-02-05T14:02:56.800Z,60.00
2019-02-05T14:05:26.001Z,58.13
2019-02-05T14:07:54.705Z,68.33
2019-02-05T14:10:26.371Z,68.73
2019-02-05T14:12:55.156Z,65.90
2019-02-05T14:15:25.791Z,59.70
2019-02-05T14:17:54.585Z,62.17
2019-02-05T14:20:24.147Z,61.47
2019-02-05T14:22:52.752Z,69.63
2019-02-05T14:25:21.847Z,64.97
2019-02-05T14:27:50.620Z,71.67
2019-02-05T14:30:31.045Z,62.33
2019-02-05T14:32:59.845Z,70.97
2019-02-05T14:35:28.945Z,67.67
2019-02-05T14:37:57.969Z,66.50
2019-02-05T14:40:26.842Z,72.80
2019-02-05T14:42:56.437Z,72.20
2019-02-05T14:45:25.143Z,70.63
2019-02-05T14:47:54.041Z,71.50
2019-02-05T14:50:24.962Z,64.37
2019-02-05T14:52:53.772Z,66.87
2019-02-05T14:55:22.758Z,76.90
2019-02-05T14:57:51.527Z,64.13
2019-02-05T15:00:39.676Z,71.13
2019-02-05T15:03:09.660Z,61.67
2019-02-05T15:05:39.148Z,66.10
2019-02-05T15:08:08.250Z,67.80
2019-02-05T15:10:36.972Z,65.83
2019-02-05T15:13:06.731Z,77.70
2019-02-05T15:15:35.847Z,75.53
2019-02-05T15:18:05.958Z,67.50
2019-02-05T15:20:37.052Z,69.07
2019-02-05T15:23:06.727Z,67.03
2019-02-05T15:25:35.525Z,67.87
2019-02-05T15:28:04.739Z,68.77
2019-02-05T15:30:38.145Z,63.40
2019-02-05T15:33:16.627Z,78.03
2019-02-05T15:35:50.162Z,70.50
2019-02-05T15:38:19.101Z,69.00
2019-02-05T15:40:48.359Z,62.43
2019-02-05T15:43:17.278Z,63.30
2019-02-05T15:45:46.082Z,57.93
2019-02-05T15:48:14.900Z,63.93
2019-02-05T15:50:43.719Z,59.03
2019-02-05T15:53:12.407Z,55.90
2019-02-05T15:55:41.509Z,60.63
2019-02-05T15:58:10.212Z,66.40
2019-02-05T16:00:39.116Z,70.70
2019-02-05T16:03:08.641Z,68.83
2019-02-05T16:05:37.524Z,67.00
2019-02-05T16:08:06.667Z,67.23
2019-02-05T16:10:35.492Z,71.73
2019-02-05T16:13:04.579Z,74.13
2019-02-05T16:15:33.344Z,70.87
2019-02-05T16:18:01.976Z,69.27
2019-02-05T16:20:30.786Z,69.70
2019-02-05T16:22:59.388Z,80.33
2019-02-05T16:25:28.133Z,75.90
2019-02-05T16:27:57.027Z,65.87
2019-02-05T16:30:25.776Z,65.20
2019-02-05T16:32:54.388Z,63.77
2019-02-05T16:35:23.135Z,64.67
2019-02-05T16:37:51.930Z,74.20
2019-02-05T16:40:22.719Z,63.67
2019-02-05T16:42:51.874Z,59.27
2019-02-05T16:45:22.851Z,68.27
2019-02-05T16:47:51.500Z,75.93
2019-02-05T16:50:22.768Z,80.70
2019-02-05T16:52:51.640Z,62.70
2019-02-05T16:55:20.700Z,51.40
2019-02-05T16:57:50.227Z,72.10
2019-02-05T17:00:21.473Z,62.30
2019-02-05T17:02:50.337Z,67.10
2019-02-05T17:05:20.023Z,57.70
2019-02-05T17:07:48.819Z,66.37
2019-02-05T17:10:18.560Z,63.37
2019-02-05T17:12:47.657Z,58.80
2019-02-05T17:15:17.052Z,60.83
2019-02-05T17:17:46.007Z,60.30
2019-02-05T17:20:18.308Z,61.43
2019-02-05T17:22:47.140Z,57.73
2019-02-05T17:25:17.271Z,56.10
2019-02-05T17:27:46.376Z,52.83
2019-02-05T17:30:17.768Z,52.07
2019-02-05T17:32:46.503Z,49.77
2019-02-05T17:35:15.212Z,45.97
2019-02-05T17:37:44.161Z,47.00
2019-02-05T17:40:15.251Z,51.03
2019-02-05T17:42:43.980Z,46.90
2019-02-05T17:45:32.967Z,50.50
2019-02-05T17:48:03.620Z,54.97
2019-02-05T17:50:32.271Z,50.30
2019-02-05T17:53:01.327Z,49.53
2019-02-05T17:55:30.127Z,48.13
2019-02-05T17:57:59.002Z,48.43
2019-02-05T18:00:56.812Z,43.30
2019-02-05T18:03:27.061Z,46.57
2019-02-05T18:05:55.966Z,47.80
2019-02-05T18:08:24.659Z,62.10
2019-02-05T18:10:53.595Z,51.13
2019-02-05T18:13:22.257Z,39.50
2019-02-05T18:15:50.932Z,36.80
2019-02-05T18:18:19.883Z,39.03
2019-02-05T18:20:48.541Z,42.77
2019-02-05T18:23:17.299Z,38.13
2019-02-05T18:25:46.047Z,41.30
2019-02-05T18:28:14.819Z,40.27
2019-02-05T18:30:43.492Z,38.57
2019-02-05T18:33:12.518Z,40.93
2019-02-05T18:35:41.187Z,41.07
2019-02-05T18:38:12.099Z,41.40
2019-02-05T18:40:40.849Z,45.80
2019-02-05T18:43:09.615Z,47.57
2019-02-05T18:45:38.329Z,43.10
2019-02-05T18:48:07.537Z,45.63
2019-02-05T18:50:36.237Z,40.13
2019-02-05T18:53:05.066Z,46.10
2019-02-05T18:55:34.239Z,43.57
2019-02-05T18:58:09.447Z,47.77
2019-02-05T19:00:38.676Z,40.87
2019-02-05T19:03:15.019Z,50.93
2019-02-05T19:05:37.088Z,47.37
2019-02-05T19:08:06.440Z,48.10
2019-02-05T19:10:35.194Z,48.03
2019-02-05T19:13:04.373Z,49.63
2019-02-05T19:15:34.377Z,45.70
2019-02-05T19:18:03.760Z,48.93
2019-02-05T19:20:32.549Z,46.93
2019-02-05T19:23:01.952Z,47.30
2019-02-05T19:25:48.315Z,49.83
2019-02-05T19:28:25.773Z,53.93
2019-02-05T19:30:57.238Z,55.97
2019-02-05T19:33:27.642Z,53.73
2019-02-05T19:35:56.327Z,56.20
2019-02-05T19:38:25.000Z,63.43
2019-02-05T19:40:57.679Z,58.87
2019-02-05T19:43:25.717Z,62.60
2019-02-05T19:46:02.607Z,67.23
2019-02-05T19:48:45.069Z,64.30
2019-02-05T19:51:16.164Z,60.77
2019-02-05T19:53:44.615Z,62.73
2019-02-05T19:56:14.642Z,62.00
2019-02-05T19:58:43.623Z,56.93
2019-02-05T20:01:12.320Z,59.20
2019-02-05T20:03:41.087Z,61.70
2019-02-05T20:06:09.737Z,57.83
2019-02-05T20:08:38.392Z,59.57
2019-02-05T20:11:07.201Z,60.33
2019-02-05T20:13:40.257Z,65.43
2019-02-05T20:16:06.648Z,58.27
2019-02-05T20:18:35.335Z,63.47
2019-02-05T20:21:04.124Z,65.50
2019-02-05T20:23:32.875Z,59.40
2019-02-05T20:26:01.780Z,65.60
2019-02-05T20:28:30.464Z,65.77
2019-02-05T20:30:59.435Z,62.10
2019-02-05T20:33:28.248Z,64.60
2019-02-05T20:35:56.886Z,67.00
2019-02-05T20:38:25.572Z,69.83
2019-02-05T20:40:54.388Z,67.90
2019-02-05T20:43:23.172Z,69.07
2019-02-05T20:45:51.863Z,71.30
2019-02-05T20:48:20.672Z,72.70
2019-02-05T20:50:49.369Z,69.43
2019-02-05T20:53:18.048Z,73.60
2019-02-05T20:55:47.273Z,75.80
2019-02-05T20:58:15.967Z,82.50
2019-02-05T21:00:44.751Z,80.10
2019-02-05T21:03:13.380Z,73.90
2019-02-05T21:05:42.265Z,75.53
2019-02-05T21:08:10.912Z,74.23
2019-02-05T21:10:39.753Z,70.33
2019-02-05T21:13:08.538Z,70.13
2019-02-05T21:15:37.246Z,69.80
2019-02-05T21:18:05.941Z,73.40
2019-02-05T21:20:34.759Z,67.60
2019-02-05T21:23:04.316Z,71.17
2019-02-05T21:25:32.981Z,71.80
2019-02-05T21:28:01.864Z,79.20
2019-02-05T21:30:31.226Z,78.03
2019-02-05T21:32:59.839Z,80.20
2019-02-05T21:35:28.495Z,72.03
2019-02-05T21:37:57.395Z,72.10
2019-02-05T21:40:26.119Z,75.90
2019-02-05T21:42:54.823Z,84.73
2019-02-05T21:45:23.965Z,78.37
2019-02-05T21:47:52.672Z,78.87
2019-02-05T21:50:22.438Z,83.60
2019-02-05T21:52:51.359Z,77.90
2019-02-05T21:55:20.396Z,102.93
2019-02-05T21:57:49.185Z,102.07
2019-02-05T22:00:20.574Z,88.30
2019-02-05T22:02:49.699Z,91.80
2019-02-05T22:05:18.479Z,93.13
2019-02-05T22:07:47.107Z,92.73
2019-02-05T22:10:15.937Z,86.67
2019-02-05T22:12:45.668Z,89.73
2019-02-05T22:15:14.966Z,93.13
2019-02-05T22:17:43.580Z,91.97
2019-02-05T22:20:17.352Z,88.03
2019-02-05T22:22:46.026Z,81.07
2019-02-05T22:25:17.739Z,73.03
2019-02-05T22:27:46.420Z,77.50
2019-02-05T22:30:18.179Z,87.57
2019-02-05T22:32:46.951Z,89.43
2019-02-05T22:35:16.349Z,86.03
2019-02-05T22:37:45.402Z,84.30
2019-02-05T22:40:14.621Z,102.90
2019-02-05T22:42:43.237Z,100.87
2019-02-05T22:45:12.868Z,97.77
2019-02-05T22:47:41.676Z,94.75
2019-02-05T22:50:13.597Z,95.97
2019-02-05T22:52:43.504Z,99.37
2019-02-05T22:55:13.050Z,95.13
2019-02-05T22:57:42.332Z,109.80
2019-02-05T23:00:38.165Z,94.23
2019-02-05T23:03:07.770Z,91.83
2019-02-05T23:06:20.606Z,98.63
2019-02-05T23:08:49.823Z,94.57
2019-02-05T23:11:41.260Z,106.30
2019-02-05T23:14:10.044Z,99.77
2019-02-05T23:16:38.735Z,102.37
2019-02-05T23:19:07.527Z,109.57
2019-02-05T23:21:36.549Z,99.07
2019-02-05T23:24:05.527Z,101.47
2019-02-05T23:26:34.183Z,118.07
2019-02-05T23:29:02.832Z,118.63
2019-02-05T23:31:31.495Z,112.40
2019-02-05T23:34:00.178Z,102.23
2019-02-05T23:36:28.827Z,101.13
2019-02-05T23:38:57.803Z,107.07
2019-02-05T23:41:26.428Z,118.30
2019-02-05T23:43:55.123Z,110.10
2019-02-05T23:46:23.774Z,108.90
2019-02-05T23:48:52.497Z,111.10
2019-02-05T23:51:21.354Z,96.17
2019-02-05T23:53:50.487Z,96.20
2019-02-05T23:56:25.591Z,84.77
2019-02-05T23:58:49.623Z,84.60
